createdAt,value
2022-11-05T00:00:06.229Z,100551.91
2022-11-05T00:02:51.839Z,100554.34
2022-11-05T00:05:37.240Z,100572.66
2022-11-05T00:08:24.084Z,100527.66
2022-11-05T00:10:51.032Z,100563.34
2022-11-05T00:13:36.874Z,100528.97
2022-11-05T00:16:22.394Z,100577.69
2022-11-05T00:19:06.669Z,100562.63
2022-11-05T00:21:53.848Z,100571.03
2022-11-05T00:24:40.062Z,100575.66
2022-11-05T00:27:07.609Z,100591.31
2022-11-05T00:29:34.879Z,100582.09
2022-11-05T00:32:02.292Z,100577.69
2022-11-05T00:34:29.434Z,100590.09
2022-11-05T00:36:56.608Z,100574.16
2022-11-05T00:39:23.581Z,100585.84
2022-11-05T00:42:10.571Z,100549.19
2022-11-05T00:44:56.041Z,100555.19
2022-11-05T00:47:43.538Z,100589.78
2022-11-05T00:50:11.837Z,100557.34
2022-11-05T00:52:57.953Z,100601.59
2022-11-05T00:55:29.537Z,100568.03
2022-11-05T00:57:58.012Z,100568.84
2022-11-05T01:00:27.712Z,100573.47
2022-11-05T01:02:58.866Z,100585.75
2022-11-05T01:05:26.413Z,100580.72
2022-11-05T01:07:53.621Z,100603.66
2022-11-05T01:10:21.529Z,100610.97
2022-11-05T01:12:48.766Z,100601.41
2022-11-05T01:15:16.936Z,100580.59
2022-11-05T01:17:44.093Z,100565.44
2022-11-05T01:20:11.783Z,100617.47
2022-11-05T01:22:39.706Z,100613.34
2022-11-05T01:25:07.981Z,100608.38
2022-11-05T01:27:36.855Z,100511.25
2022-11-05T01:30:06.116Z,100548.31
2022-11-05T01:32:34.932Z,100619.91
2022-11-05T01:35:02.683Z,100535.75
2022-11-05T01:37:30.729Z,100627.41
2022-11-05T01:39:57.795Z,100625.31
2022-11-05T01:42:26.621Z,100619.91
2022-11-05T01:45:03.614Z,100625.31
2022-11-05T01:47:57.975Z,100632.13
2022-11-05T01:50:36.939Z,100625.72
2022-11-05T01:53:15.734Z,100631.53
2022-11-05T01:55:48.237Z,100627.44
2022-11-05T01:58:20.415Z,100636.47
2022-11-05T02:00:47.989Z,100640.59
2022-11-05T02:03:17.390Z,100619.00
2022-11-05T02:05:45.746Z,100642.59
2022-11-05T02:08:20.796Z,100467.41
2022-11-05T02:10:48.808Z,100555.19
2022-11-05T02:13:15.831Z,100641.22
2022-11-05T02:15:59.982Z,100574.75
2022-11-05T02:18:49.532Z,100633.97
2022-11-05T02:21:42.045Z,100664.66
2022-11-05T02:24:30.593Z,100663.66
2022-11-05T02:27:10.302Z,100559.31
2022-11-05T02:30:12.529Z,100663.38
2022-11-05T02:32:52.305Z,100570.44
2022-11-05T02:35:40.185Z,100658.53
2022-11-05T02:38:13.324Z,100652.94
2022-11-05T02:40:54.026Z,100604.84
2022-11-05T02:43:36.584Z,100593.75
2022-11-05T02:46:03.574Z,100669.06
2022-11-05T02:48:43.277Z,100633.97
2022-11-05T02:51:27.354Z,100668.50
2022-11-05T02:54:24.595Z,100670.28
2022-11-05T02:56:54.612Z,100642.72
2022-11-05T02:59:21.647Z,100567.59
2022-11-05T03:01:50.782Z,100595.31
2022-11-05T03:04:21.977Z,100651.81
2022-11-05T03:07:04.530Z,100680.84
2022-11-05T03:10:11.099Z,100663.81
2022-11-05T03:12:57.269Z,100604.69
2022-11-05T03:16:15.510Z,100681.03
2022-11-05T03:18:50.081Z,100676.81
2022-11-05T03:21:29.898Z,100611.97
2022-11-05T03:24:03.093Z,100671.13
2022-11-05T03:26:34.106Z,100695.75
2022-11-05T03:29:11.065Z,100701.34
2022-11-05T03:31:41.775Z,100613.94
2022-11-05T03:34:10.801Z,100694.25
2022-11-05T03:36:42.577Z,100698.00
2022-11-05T03:39:15.655Z,100705.56
2022-11-05T03:41:49.372Z,100705.78
2022-11-05T03:44:23.801Z,100717.28
2022-11-05T03:46:53.207Z,100674.97
2022-11-05T03:49:25.521Z,100706.47
2022-11-05T03:52:01.098Z,100702.53
2022-11-05T03:54:28.485Z,100654.59
2022-11-05T03:57:01.198Z,100742.72
2022-11-05T03:59:31.569Z,100740.72
2022-11-05T04:01:58.957Z,100701.84
2022-11-05T04:04:26.009Z,100643.28
2022-11-05T04:07:11.654Z,100624.50
2022-11-05T04:09:57.031Z,100746.44
2022-11-05T04:12:42.717Z,100631.06
2022-11-05T04:15:09.710Z,100731.19
2022-11-05T04:17:36.657Z,100643.28
2022-11-05T04:20:21.919Z,100751.38
2022-11-05T04:23:07.666Z,100749.50
2022-11-05T04:25:34.788Z,100674.28
2022-11-05T04:28:01.771Z,100711.03
2022-11-05T04:30:28.888Z,100745.53
2022-11-05T04:33:00.343Z,100747.44
2022-11-05T04:35:30.292Z,100676.16
2022-11-05T04:37:57.616Z,100708.06
2022-11-05T04:40:25.588Z,100762.00
2022-11-05T04:42:55.081Z,100661.19
2022-11-05T04:45:24.276Z,100751.47
2022-11-05T04:47:51.507Z,100768.81
2022-11-05T04:50:18.719Z,100725.69
2022-11-05T04:52:45.762Z,100769.59
2022-11-05T04:55:13.076Z,100703.50
2022-11-05T04:57:40.227Z,100775.38
2022-11-05T05:00:08.627Z,100571.50
2022-11-05T05:02:36.219Z,100764.97
2022-11-05T05:05:04.544Z,100766.34
2022-11-05T05:07:35.685Z,100659.03
2022-11-05T05:10:04.691Z,100773.31
2022-11-05T05:12:32.941Z,100774.72
2022-11-05T05:15:00.166Z,100738.25
2022-11-05T05:17:27.191Z,100704.47
2022-11-05T05:20:12.514Z,100707.56
2022-11-05T05:22:39.647Z,100766.03
2022-11-05T05:25:07.078Z,100761.69
2022-11-05T05:27:34.081Z,100771.84
2022-11-05T05:30:01.193Z,100776.78
2022-11-05T05:32:28.735Z,100793.22
2022-11-05T05:34:55.933Z,100791.78
2022-11-05T05:37:23.054Z,100797.38
2022-11-05T05:39:50.139Z,100659.34
2022-11-05T05:42:17.099Z,100775.59
2022-11-05T05:44:44.113Z,100802.28
2022-11-05T05:47:11.022Z,100792.16
2022-11-05T05:49:37.972Z,100752.84
2022-11-05T05:52:05.648Z,100822.69
2022-11-05T05:54:35.993Z,100821.31
2022-11-05T05:57:05.628Z,100796.38
2022-11-05T05:59:32.871Z,100800.59
2022-11-05T06:02:00.878Z,100816.38
2022-11-05T06:04:28.030Z,100808.28
2022-11-05T06:06:55.089Z,100695.81
2022-11-05T06:09:22.184Z,100771.06
2022-11-05T06:11:49.340Z,100828.69
2022-11-05T06:14:16.396Z,100836.47
2022-11-05T06:16:43.412Z,100734.53
2022-11-05T06:19:10.346Z,100729.28
2022-11-05T06:21:37.347Z,100832.16
2022-11-05T06:24:04.380Z,100748.91
2022-11-05T06:26:31.750Z,100839.34
2022-11-05T06:28:58.761Z,100745.34
2022-11-05T06:31:26.082Z,100821.50
2022-11-05T06:33:53.125Z,100844.56
2022-11-05T06:36:20.560Z,100811.25
2022-11-05T06:38:47.726Z,100837.47
2022-11-05T06:41:15.043Z,100791.56
2022-11-05T06:43:42.010Z,100798.75
2022-11-05T06:46:11.577Z,100839.66
2022-11-05T06:48:39.397Z,100829.00
2022-11-05T06:51:08.098Z,100855.78
2022-11-05T06:53:35.692Z,100787.53
2022-11-05T06:56:07.660Z,100844.47
2022-11-05T06:58:35.382Z,100721.44
2022-11-05T07:01:04.516Z,100837.56
2022-11-05T07:03:31.529Z,100857.19
2022-11-05T07:06:00.898Z,100858.16
2022-11-05T07:08:32.058Z,100753.34
2022-11-05T07:10:59.788Z,100853.44
2022-11-05T07:13:26.814Z,100864.25
2022-11-05T07:15:53.862Z,100842.56
2022-11-05T07:18:20.914Z,100868.91
2022-11-05T07:20:47.820Z,100811.88
2022-11-05T07:23:15.599Z,100728.91
2022-11-05T07:25:43.327Z,100872.34
2022-11-05T07:28:11.050Z,100881.53
2022-11-05T07:30:38.742Z,100791.47
2022-11-05T07:33:05.749Z,100889.78
2022-11-05T07:35:32.847Z,100847.31
2022-11-05T07:37:59.778Z,100810.66
2022-11-05T07:40:28.796Z,100816.84
2022-11-05T07:43:01.542Z,100895.41
2022-11-05T07:45:30.850Z,100872.16
2022-11-05T07:48:02.553Z,100901.03
2022-11-05T07:50:32.347Z,100905.47
2022-11-05T07:53:04.699Z,100915.34
2022-11-05T07:55:31.782Z,100906.06
2022-11-05T07:57:59.132Z,100907.13
2022-11-05T08:00:27.564Z,100914.13
2022-11-05T08:03:06.778Z,100921.44
2022-11-05T08:05:40.448Z,100870.66
2022-11-05T08:08:08.916Z,100840.00
2022-11-05T08:10:37.585Z,100911.16
2022-11-05T08:13:05.766Z,100909.41
2022-11-05T08:15:33.117Z,100904.06
2022-11-05T08:18:01.305Z,100896.78
2022-11-05T08:20:28.457Z,100891.47
2022-11-05T08:22:56.252Z,100921.59
2022-11-05T08:25:24.005Z,100899.53
2022-11-05T08:27:59.160Z,100841.00
2022-11-05T08:30:27.202Z,100827.59
2022-11-05T08:33:10.082Z,100918.44
2022-11-05T08:35:38.911Z,100916.84
2022-11-05T08:38:07.424Z,100922.19
2022-11-05T08:40:36.747Z,100827.19
2022-11-05T08:43:06.875Z,100817.72
2022-11-05T08:45:38.248Z,100927.09
2022-11-05T08:48:17.642Z,100922.84
2022-11-05T08:50:46.406Z,100926.38
2022-11-05T08:53:14.417Z,100863.44
2022-11-05T08:55:41.766Z,100826.03
2022-11-05T08:58:15.458Z,100927.59
2022-11-05T09:00:44.692Z,100919.34
2022-11-05T09:03:12.607Z,100919.25
2022-11-05T09:05:41.332Z,100817.56
2022-11-05T09:08:12.975Z,100860.78
2022-11-05T09:10:41.083Z,100910.28
2022-11-05T09:13:13.046Z,100817.06
2022-11-05T09:15:44.068Z,100857.47
2022-11-05T09:18:13.665Z,100808.91
2022-11-05T09:20:40.979Z,100815.09
2022-11-05T09:23:09.573Z,100908.22
2022-11-05T09:25:36.634Z,100874.19
2022-11-05T09:28:16.214Z,100929.19
2022-11-05T09:30:46.508Z,100923.38
2022-11-05T09:33:14.542Z,100920.91
2022-11-05T09:35:42.459Z,100927.09
2022-11-05T09:38:09.777Z,100904.03
2022-11-05T09:40:54.393Z,100921.66
2022-11-05T09:43:31.199Z,100929.56
2022-11-05T09:46:01.050Z,100929.97
2022-11-05T09:48:32.399Z,100847.41
2022-11-05T09:50:59.987Z,100855.28
2022-11-05T09:53:27.333Z,100838.72
2022-11-05T09:55:59.824Z,100946.28
2022-11-05T09:58:48.018Z,100941.31
2022-11-05T10:01:22.470Z,100941.31
2022-11-05T10:03:54.394Z,100936.81
2022-11-05T10:06:24.245Z,100949.81
2022-11-05T10:09:00.041Z,100953.47
2022-11-05T10:11:43.934Z,100924.00
2022-11-05T10:14:33.889Z,100934.75
2022-11-05T10:17:25.926Z,100949.00
2022-11-05T10:20:09.928Z,100964.13
2022-11-05T10:22:38.546Z,100960.75
2022-11-05T10:25:17.813Z,100956.50
2022-11-05T10:27:53.493Z,100943.00
2022-11-05T10:30:21.511Z,100950.78
2022-11-05T10:32:52.329Z,100958.00
2022-11-05T10:35:22.729Z,100953.66
2022-11-05T10:37:51.470Z,100968.78
2022-11-05T10:40:31.552Z,100927.16
2022-11-05T10:43:07.394Z,100880.25
2022-11-05T10:45:51.424Z,100971.44
2022-11-05T10:49:04.882Z,100960.28
2022-11-05T10:51:32.983Z,100948.03
2022-11-05T10:54:19.388Z,100965.81
2022-11-05T10:56:46.567Z,100957.34
2022-11-05T10:59:28.458Z,100947.06
2022-11-05T11:02:19.522Z,100968.56
2022-11-05T11:04:56.230Z,100980.41
2022-11-05T11:07:25.689Z,100907.44
2022-11-05T11:09:53.189Z,100976.09
2022-11-05T11:12:24.579Z,100880.53
2022-11-05T11:15:16.648Z,100979.03
2022-11-05T11:17:43.837Z,100949.44
2022-11-05T11:20:29.617Z,100884.09
2022-11-05T11:23:14.530Z,100988.91
2022-11-05T11:25:51.720Z,100985.72
2022-11-05T11:28:24.573Z,100974.19
2022-11-05T11:31:05.227Z,100977.16
2022-11-05T11:33:34.226Z,100991.88
2022-11-05T11:36:04.220Z,100904.69
2022-11-05T11:38:34.001Z,100973.03
2022-11-05T11:41:26.721Z,100999.66
2022-11-05T11:44:18.007Z,100964.63
2022-11-05T11:46:51.269Z,101004.09
2022-11-05T11:49:34.420Z,100963.53
2022-11-05T11:52:05.581Z,101001.91
2022-11-05T11:54:34.602Z,101009.13
2022-11-05T11:57:02.274Z,101010.97
2022-11-05T12:00:01.876Z,101010.41
2022-11-05T12:02:42.638Z,100833.22
2022-11-05T12:05:28.125Z,101016.72
2022-11-05T12:08:00.468Z,100968.38
2022-11-05T12:10:55.469Z,101002.63
2022-11-05T12:13:22.592Z,101013.53
2022-11-05T12:15:53.855Z,100996.38
2022-11-05T12:18:29.748Z,100955.31
2022-11-05T12:20:58.405Z,101007.41
2022-11-05T12:23:44.290Z,100988.88
2022-11-05T12:26:35.649Z,101015.59
2022-11-05T12:29:24.161Z,100969.34
2022-11-05T12:32:03.517Z,101019.06
2022-11-05T12:34:48.962Z,101028.66
2022-11-05T12:37:40.985Z,101017.28
2022-11-05T12:40:17.167Z,101029.50
2022-11-05T12:43:14.784Z,101018.47
2022-11-05T12:46:00.696Z,101014.31
2022-11-05T12:49:05.180Z,101014.69
2022-11-05T12:51:57.261Z,101017.75
2022-11-05T12:54:58.679Z,100930.78
2022-11-05T12:57:27.057Z,100976.63
2022-11-05T13:00:06.738Z,100970.00
2022-11-05T13:02:57.137Z,101008.44
2022-11-05T13:05:39.225Z,100996.28
2022-11-05T13:08:23.474Z,101038.25
2022-11-05T13:10:55.841Z,101019.22
2022-11-05T13:13:44.185Z,100975.19
2022-11-05T13:16:46.670Z,101039.88
2022-11-05T13:19:28.740Z,101024.22
2022-11-05T13:22:11.246Z,101039.59
2022-11-05T13:24:45.254Z,101055.19
2022-11-05T13:27:21.435Z,101048.06
2022-11-05T13:29:53.498Z,101054.72
2022-11-05T13:32:23.479Z,101057.63
2022-11-05T13:34:52.086Z,100998.00
2022-11-05T13:37:47.093Z,101065.50
2022-11-05T13:40:19.285Z,101062.53
2022-11-05T13:43:09.041Z,101058.19
2022-11-05T13:45:54.549Z,101073.78
2022-11-05T13:48:44.380Z,101073.97
2022-11-05T13:51:39.297Z,101080.59
2022-11-05T13:54:18.751Z,101081.34
2022-11-05T13:57:13.370Z,101066.75
2022-11-05T14:00:06.393Z,101083.19
2022-11-05T14:02:43.308Z,101081.53
2022-11-05T14:05:33.699Z,100974.75
2022-11-05T14:08:09.073Z,101060.91
2022-11-05T14:10:36.208Z,101093.59
2022-11-05T14:13:27.297Z,101100.56
2022-11-05T14:16:02.485Z,101097.13
2022-11-05T14:18:47.819Z,101025.56
2022-11-05T14:21:26.803Z,101099.34
2022-11-05T14:23:56.163Z,101092.69
2022-11-05T14:26:28.930Z,101101.59
2022-11-05T14:28:58.978Z,101101.78
2022-11-05T14:31:54.636Z,101079.78
2022-11-05T14:34:41.489Z,101078.03
2022-11-05T14:37:23.559Z,101085.13
2022-11-05T14:39:51.444Z,100965.91
2022-11-05T14:42:31.297Z,100985.03
2022-11-05T14:45:08.224Z,101098.59
2022-11-05T14:47:42.132Z,101020.88
2022-11-05T14:50:11.701Z,101110.47
2022-11-05T14:52:50.053Z,101092.78
2022-11-05T14:55:57.024Z,101105.94
2022-11-05T14:58:33.155Z,101106.38
2022-11-05T15:01:03.266Z,101088.03
2022-11-05T15:03:39.714Z,101098.16
2022-11-05T15:06:20.718Z,101069.81
2022-11-05T15:08:47.807Z,100988.72
2022-11-05T15:11:30.966Z,101067.63
2022-11-05T15:14:14.845Z,101105.88
2022-11-05T15:16:50.441Z,101117.22
2022-11-05T15:19:29.552Z,101115.84
2022-11-05T15:21:59.723Z,100969.41
2022-11-05T15:24:28.344Z,100990.16
2022-11-05T15:27:01.246Z,101122.66
2022-11-05T15:29:30.712Z,101123.66
2022-11-05T15:31:58.922Z,101015.28
2022-11-05T15:34:36.225Z,101097.84
2022-11-05T15:37:12.303Z,101131.09
2022-11-05T15:39:44.120Z,101093.16
2022-11-05T15:42:17.456Z,101113.19
2022-11-05T15:44:48.655Z,101115.66
2022-11-05T15:47:23.444Z,101132.22
2022-11-05T15:49:56.402Z,101032.84
2022-11-05T15:52:37.271Z,100827.66
2022-11-05T15:55:25.007Z,101029.41
2022-11-05T15:57:56.007Z,101137.47
2022-11-05T16:00:26.552Z,101139.47
2022-11-05T16:03:00.842Z,101146.28
2022-11-05T16:05:32.576Z,101091.75
2022-11-05T16:08:00.465Z,101118.91
2022-11-05T16:10:34.238Z,101112.13
2022-11-05T16:13:32.351Z,101134.56
2022-11-05T16:16:02.847Z,101104.97
2022-11-05T16:18:35.700Z,101129.88
2022-11-05T16:21:29.004Z,101117.00
2022-11-05T16:23:59.028Z,101105.91
2022-11-05T16:29:29.793Z,101022.59
2022-11-05T16:31:59.170Z,101117.44
2022-11-05T16:34:35.752Z,101110.53
2022-11-05T16:37:03.671Z,101109.09
2022-11-05T16:39:30.679Z,101137.56
2022-11-05T16:41:57.845Z,101136.13
2022-11-05T16:44:24.940Z,100772.88
2022-11-05T16:46:52.710Z,101143.00
2022-11-05T16:49:21.077Z,101086.97
2022-11-05T16:51:48.033Z,101022.84
2022-11-05T16:54:15.089Z,101144.25
2022-11-05T16:56:43.933Z,101142.47
2022-11-05T16:59:13.277Z,101063.88
2022-11-05T17:01:42.755Z,101096.56
2022-11-05T17:04:13.192Z,101126.91
2022-11-05T17:06:43.877Z,101125.59
2022-11-05T17:09:11.001Z,101024.75
2022-11-05T17:11:38.134Z,101120.91
2022-11-05T17:14:05.424Z,101138.69
2022-11-05T17:16:32.933Z,101125.47
2022-11-05T17:19:00.217Z,101134.69
2022-11-05T17:21:28.980Z,101140.81
2022-11-05T17:23:56.387Z,101107.13
2022-11-05T17:26:24.748Z,101085.88
2022-11-05T17:28:52.917Z,101110.56
2022-11-05T17:31:20.670Z,101112.56
2022-11-05T17:33:48.755Z,101108.22
2022-11-05T17:36:18.056Z,101118.25
2022-11-05T17:38:46.414Z,101151.59
2022-11-05T17:41:16.931Z,100937.97
2022-11-05T17:43:45.393Z,101145.50
2022-11-05T17:46:16.925Z,101051.19
2022-11-05T17:48:46.791Z,101135.59
2022-11-05T17:51:17.041Z,101129.94
2022-11-05T17:53:46.365Z,100960.28
2022-11-05T17:56:24.589Z,101165.06
2022-11-05T17:58:56.509Z,101156.84
2022-11-05T18:01:27.590Z,101094.31
2022-11-05T18:03:55.516Z,101130.38
2022-11-05T18:06:22.540Z,101173.34
2022-11-05T18:08:50.599Z,101149.06
2022-11-05T18:11:19.683Z,101165.50
2022-11-05T18:13:47.163Z,101149.31
2022-11-05T18:16:14.361Z,101154.63
2022-11-05T18:18:41.652Z,101164.19
2022-11-05T18:21:09.013Z,101160.84
2022-11-05T18:23:36.083Z,101119.25
2022-11-05T18:26:09.078Z,101163.53
2022-11-05T18:28:36.956Z,101167.09
2022-11-05T18:31:08.218Z,101161.97
2022-11-05T18:33:35.315Z,101137.59
2022-11-05T18:36:03.339Z,101166.88
2022-11-05T18:38:30.339Z,101152.41
2022-11-05T18:40:57.628Z,101143.59
2022-11-05T18:43:24.621Z,101152.41
2022-11-05T18:45:56.409Z,101154.41
2022-11-05T18:48:23.540Z,101167.84
2022-11-05T18:50:50.528Z,101154.41
2022-11-05T18:53:17.919Z,101127.84
2022-11-05T18:55:46.226Z,101184.22
2022-11-05T18:58:13.446Z,101170.00
2022-11-05T19:00:41.444Z,101178.00
2022-11-05T19:03:09.731Z,101153.09
2022-11-05T19:05:37.468Z,101050.94
2022-11-05T19:08:05.024Z,101156.28
2022-11-05T19:10:32.755Z,101150.84
2022-11-05T19:12:59.846Z,101126.38
2022-11-05T19:15:26.981Z,101163.19
2022-11-05T19:17:53.967Z,101038.50
2022-11-05T19:20:21.101Z,101175.31
2022-11-05T19:22:48.118Z,101159.09
2022-11-05T19:25:15.023Z,101192.47
2022-11-05T19:27:43.785Z,101167.84
2022-11-05T19:30:10.983Z,101191.88
2022-11-05T19:32:37.955Z,101079.19
2022-11-05T19:35:05.335Z,101088.28
2022-11-05T19:37:32.378Z,101179.09
2022-11-05T19:39:59.333Z,101078.41
2022-11-05T19:42:27.013Z,101170.88
2022-11-05T19:44:54.081Z,101195.00
2022-11-05T19:47:21.184Z,101185.22
2022-11-05T19:49:48.123Z,101169.50
2022-11-05T19:52:16.342Z,101180.63
2022-11-05T19:54:43.545Z,101180.09
2022-11-05T19:57:11.960Z,101212.25
2022-11-05T19:59:39.533Z,101198.34
2022-11-05T20:02:09.392Z,101142.16
2022-11-05T20:04:38.857Z,101198.44
2022-11-05T20:07:05.980Z,101202.13
2022-11-05T20:09:34.673Z,101176.09
2022-11-05T20:12:01.840Z,100982.25
2022-11-05T20:14:30.126Z,101209.69
2022-11-05T20:16:57.140Z,101179.22
2022-11-05T20:19:24.145Z,101168.88
2022-11-05T20:21:51.480Z,101200.22
2022-11-05T20:24:24.639Z,101193.25
2022-11-05T20:26:56.342Z,101213.44
2022-11-05T20:29:27.860Z,101163.31
2022-11-05T20:31:58.103Z,101103.34
2022-11-05T20:34:25.305Z,101201.31
2022-11-05T20:36:52.416Z,101201.03
2022-11-05T20:39:21.300Z,101175.31
2022-11-05T20:41:48.384Z,101194.88
2022-11-05T20:44:15.754Z,101181.66
2022-11-05T20:46:42.841Z,101200.22
2022-11-05T20:49:09.943Z,101164.88
2022-11-05T20:51:37.021Z,101202.69
2022-11-05T20:54:04.392Z,101192.09
2022-11-05T20:56:34.798Z,101106.56
2022-11-05T20:59:02.610Z,101194.03
2022-11-05T21:01:32.604Z,101114.25
2022-11-05T21:04:00.056Z,101209.91
2022-11-05T21:06:27.042Z,101202.91
2022-11-05T21:08:54.502Z,101175.06
2022-11-05T21:11:21.543Z,101207.41
2022-11-05T21:13:48.896Z,101150.69
2022-11-05T21:16:18.782Z,101146.47
2022-11-05T21:18:47.078Z,101172.94
2022-11-05T21:21:19.349Z,101198.06
2022-11-05T21:23:46.494Z,101082.00
2022-11-05T21:26:15.158Z,101198.88
2022-11-05T21:28:42.467Z,101204.66
2022-11-05T21:31:10.181Z,101194.44
2022-11-05T21:33:37.392Z,101196.22
2022-11-05T21:36:09.988Z,101211.38
2022-11-05T21:38:37.326Z,101082.09
2022-11-05T21:41:05.074Z,101190.00
2022-11-05T21:43:32.222Z,101192.66
2022-11-05T21:46:04.160Z,101203.78
2022-11-05T21:48:31.899Z,101098.34
2022-11-05T21:51:17.430Z,101224.03
2022-11-05T21:54:03.183Z,101206.00
2022-11-05T21:56:49.573Z,101173.50
2022-11-05T21:59:38.315Z,101179.97
2022-11-05T22:02:07.026Z,101192.53
2022-11-05T22:04:37.342Z,101218.47
2022-11-05T22:07:05.629Z,101213.13
2022-11-05T22:09:32.926Z,101210.22
2022-11-05T22:12:01.381Z,100904.06
2022-11-05T22:14:28.510Z,101226.81
2022-11-05T22:16:56.279Z,101221.81
2022-11-05T22:19:23.933Z,101118.47
2022-11-05T22:21:50.941Z,101135.25
2022-11-05T22:24:18.851Z,101138.81
2022-11-05T22:26:46.919Z,101199.09
2022-11-05T22:29:14.294Z,101202.66
2022-11-05T22:31:41.838Z,101100.53
2022-11-05T22:34:10.744Z,101215.25
2022-11-05T22:36:38.234Z,101225.16
2022-11-05T22:39:06.023Z,101205.00
2022-11-05T22:41:33.494Z,101224.72
2022-11-05T22:44:00.799Z,101220.69
2022-11-05T22:46:27.929Z,101201.13
2022-11-05T22:48:56.384Z,101200.22
2022-11-05T22:51:28.695Z,101049.84
2022-11-05T22:53:55.932Z,101240.47
2022-11-05T22:56:25.341Z,101240.72
2022-11-05T22:58:52.759Z,101210.25
2022-11-05T23:01:21.724Z,101241.97
2022-11-05T23:03:50.366Z,101235.84
2022-11-05T23:06:41.518Z,101225.94
2022-11-05T23:09:42.310Z,101225.06
2022-11-05T23:12:28.914Z,101248.31
2022-11-05T23:14:58.282Z,101243.88
2022-11-05T23:17:44.274Z,101244.66
2022-11-05T23:20:39.470Z,101214.38
2022-11-05T23:23:28.959Z,101257.13
2022-11-05T23:26:00.088Z,101172.31
2022-11-05T23:28:27.326Z,101273.63
2022-11-05T23:31:29.902Z,101228.09
2022-11-05T23:33:57.240Z,101257.47
2022-11-05T23:36:43.075Z,101250.31
2022-11-05T23:39:10.107Z,101260.13
2022-11-05T23:41:55.901Z,101255.22
2022-11-05T23:44:41.635Z,101250.31
2022-11-05T23:47:27.433Z,101252.09
2022-11-05T23:49:54.448Z,101245.19
2022-11-05T23:52:21.429Z,101213.81
2022-11-05T23:54:48.544Z,101238.50
2022-11-05T23:57:15.540Z,101134.03
2022-11-05T23:59:42.668Z,101228.16
